sensor_id;sensor_type;location;lat;lon;timestamp;pressure;altitude;pressure_sealevel;temperature;humidity
51439;BME280;38816;51.142;-0.974;2024-02-23T00:00:00;97205.75;;;1.37;100.00
51439;BME280;38816;51.142;-0.974;2024-02-23T00:02:31;97193.94;;;1.40;100.00
51439;BME280;38816;51.142;-0.974;2024-02-23T00:04:56;97211.69;;;1.46;100.00
51439;BME280;38816;51.142;-0.974;2024-02-23T00:07:22;97206.59;;;1.43;100.00
51439;BME280;38816;51.142;-0.974;2024-02-23T00:09:47;97195.63;;;1.43;100.00
51439;BME280;38816;51.142;-0.974;2024-02-23T00:12:16;97188.03;;;1.40;100.00
51439;BME280;38816;51.142;-0.974;2024-02-23T00:14:41;97193.09;;;1.41;100.00
51439;BME280;38816;51.142;-0.974;2024-02-23T00:17:07;97184.66;;;1.38;100.00
51439;BME280;38816;51.142;-0.974;2024-02-23T00:19:33;97175.38;;;1.37;100.00
51439;BME280;38816;51.142;-0.974;2024-02-23T00:21:58;97186.34;;;1.36;100.00
51439;BME280;38816;51.142;-0.974;2024-02-23T00:24:27;97178.75;;;1.43;100.00
51439;BME280;38816;51.142;-0.974;2024-02-23T00:26:53;97161.88;;;1.41;100.00
51439;BME280;38816;51.142;-0.974;2024-02-23T00:29:19;97167.78;;;1.43;100.00
51439;BME280;38816;51.142;-0.974;2024-02-23T00:31:44;97165.25;;;1.47;100.00
51439;BME280;38816;51.142;-0.974;2024-02-23T00:34:13;97160.22;;;1.46;100.00
51439;BME280;38816;51.142;-0.974;2024-02-23T00:36:40;97150.09;;;1.46;100.00
51439;BME280;38816;51.142;-0.974;2024-02-23T00:39:07;97144.19;;;1.45;100.00
51439;BME280;38816;51.142;-0.974;2024-02-23T00:41:33;97146.72;;;1.50;100.00
51439;BME280;38816;51.142;-0.974;2024-02-23T00:43:59;97138.25;;;1.48;100.00
51439;BME280;38816;51.142;-0.974;2024-02-23T00:46:24;97138.28;;;1.51;100.00
51439;BME280;38816;51.142;-0.974;2024-02-23T00:48:50;97134.09;;;1.58;100.00
51439;BME280;38816;51.142;-0.974;2024-02-23T00:51:16;97126.50;;;1.68;100.00
51439;BME280;38816;51.142;-0.974;2024-02-23T00:53:41;97133.25;;;1.75;100.00
51439;BME280;38816;51.142;-0.974;2024-02-23T00:56:07;97114.69;;;1.73;100.00
51439;BME280;38816;51.142;-0.974;2024-02-23T00:58:32;97116.38;;;1.77;100.00
51439;BME280;38816;51.142;-0.974;2024-02-23T01:00:59;97107.09;;;1.80;100.00
51439;BME280;38816;51.142;-0.974;2024-02-23T01:03:24;97102.00;;;1.75;100.00
51439;BME280;38816;51.142;-0.974;2024-02-23T01:05:50;97101.19;;;1.74;100.00
51439;BME280;38816;51.142;-0.974;2024-02-23T01:08:15;97091.91;;;1.73;100.00
51439;BME280;38816;51.142;-0.974;2024-02-23T01:10:41;97097.78;;;1.75;100.00
51439;BME280;38816;51.142;-0.974;2024-02-23T01:13:06;97084.31;;;1.76;100.00
51439;BME280;38816;51.142;-0.974;2024-02-23T01:15:32;97088.53;;;1.77;100.00
51439;BME280;38816;51.142;-0.974;2024-02-23T01:17:57;97084.31;;;1.83;100.00
51439;BME280;38816;51.142;-0.974;2024-02-23T01:20:23;97077.56;;;1.86;100.00
51439;BME280;38816;51.142;-0.974;2024-02-23T01:22:48;97072.47;;;1.92;100.00
51439;BME280;38816;51.142;-0.974;2024-02-23T01:25:14;97070.78;;;1.96;100.00
51439;BME280;38816;51.142;-0.974;2024-02-23T01:27:41;97064.03;;;1.92;100.00
51439;BME280;38816;51.142;-0.974;2024-02-23T01:30:07;97063.19;;;1.96;100.00
51439;BME280;38816;51.142;-0.974;2024-02-23T01:32:33;97061.50;;;1.93;100.00
51439;BME280;38816;51.142;-0.974;2024-02-23T01:34:58;97054.75;;;1.92;100.00
51439;BME280;38816;51.142;-0.974;2024-02-23T01:37:24;97057.28;;;1.95;100.00
51439;BME280;38816;51.142;-0.974;2024-02-23T01:39:49;97055.59;;;1.93;100.00
51439;BME280;38816;51.142;-0.974;2024-02-23T01:42:15;97050.53;;;1.91;100.00
51439;BME280;38816;51.142;-0.974;2024-02-23T01:44:40;97046.28;;;1.93;100.00
51439;BME280;38816;51.142;-0.974;2024-02-23T01:47:06;97042.91;;;1.97;100.00
51439;BME280;38816;51.142;-0.974;2024-02-23T01:49:32;97045.44;;;2.14;100.00
51439;BME280;38816;51.142;-0.974;2024-02-23T01:51:59;97045.38;;;2.33;100.00
51439;BME280;38816;51.142;-0.974;2024-02-23T01:54:25;97036.91;;;2.46;100.00
51439;BME280;38816;51.142;-0.974;2024-02-23T01:56:51;97038.53;;;2.64;100.00
51439;BME280;38816;51.142;-0.974;2024-02-23T01:59:18;97054.53;;;2.78;100.00
51439;BME280;38816;51.142;-0.974;2024-02-23T02:01:43;97054.50;;;2.89;100.00
51439;BME280;38816;51.142;-0.974;2024-02-23T02:04:09;97052.75;;;2.95;100.00
51439;BME280;38816;51.142;-0.974;2024-02-23T02:06:35;97036.69;;;2.99;100.00
51439;BME280;38816;51.142;-0.974;2024-02-23T02:09:01;97036.63;;;3.05;100.00
51439;BME280;38816;51.142;-0.974;2024-02-23T02:11:27;97024.78;;;3.12;100.00
51439;BME280;38816;51.142;-0.974;2024-02-23T02:13:52;97021.34;;;3.15;100.00
51439;BME280;38816;51.142;-0.974;2024-02-23T02:16:18;97009.50;;;3.18;100.00
51439;BME280;38816;51.142;-0.974;2024-02-23T02:18:43;97007.81;;;3.20;100.00
51439;BME280;38816;51.142;-0.974;2024-02-23T02:21:11;96999.31;;;3.23;100.00
51439;BME280;38816;51.142;-0.974;2024-02-23T02:23:37;96987.44;;;3.26;100.00
51439;BME280;38816;51.142;-0.974;2024-02-23T02:26:03;96986.63;;;3.24;100.00
51439;BME280;38816;51.142;-0.974;2024-02-23T02:28:29;96983.28;;;3.15;100.00
51439;BME280;38816;51.142;-0.974;2024-02-23T02:30:55;96996.00;;;3.13;100.00
51439;BME280;38816;51.142;-0.974;2024-02-23T02:33:21;96989.25;;;3.06;100.00
51439;BME280;38816;51.142;-0.974;2024-02-23T02:35:47;96989.34;;;2.98;100.00
51439;BME280;38816;51.142;-0.974;2024-02-23T02:38:12;96986.81;;;2.95;100.00
51439;BME280;38816;51.142;-0.974;2024-02-23T02:40:38;96985.94;;;2.96;100.00
51439;BME280;38816;51.142;-0.974;2024-02-23T02:43:04;96991.03;;;2.95;100.00
51439;BME280;38816;51.142;-0.974;2024-02-23T02:45:29;96986.84;;;2.89;100.00
51439;BME280;38816;51.142;-0.974;2024-02-23T02:47:55;96981.81;;;2.85;100.00
51439;BME280;38816;51.142;-0.974;2024-02-23T02:50:21;96981.81;;;2.80;100.00
51439;BME280;38816;51.142;-0.974;2024-02-23T02:52:50;96979.28;;;2.85;100.00
51439;BME280;38816;51.142;-0.974;2024-02-23T02:55:15;96969.06;;;2.91;100.00
51439;BME280;38816;51.142;-0.974;2024-02-23T02:57:41;96959.75;;;2.96;100.00
51439;BME280;38816;51.142;-0.974;2024-02-23T03:00:09;96960.56;;;3.02;100.00
51439;BME280;38816;51.142;-0.974;2024-02-23T03:02:35;96963.94;;;3.00;100.00
51439;BME280;38816;51.142;-0.974;2024-02-23T03:05:01;96959.75;;;2.97;100.00
51439;BME280;38816;51.142;-0.974;2024-02-23T03:07:26;96957.97;;;3.05;100.00
51439;BME280;38816;51.142;-0.974;2024-02-23T03:09:52;96948.66;;;3.06;100.00
51439;BME280;38816;51.142;-0.974;2024-02-23T03:12:17;96948.72;;;3.03;100.00
51439;BME280;38816;51.142;-0.974;2024-02-23T03:14:44;96947.84;;;3.04;100.00
51439;BME280;38816;51.142;-0.974;2024-02-23T03:17:09;96941.00;;;3.14;100.00
51439;BME280;38816;51.142;-0.974;2024-02-23T03:19:36;96951.97;;;3.17;100.00
51439;BME280;38816;51.142;-0.974;2024-02-23T03:22:01;96947.78;;;3.16;100.00
51439;BME280;38816;51.142;-0.974;2024-02-23T03:24:27;96958.81;;;3.09;100.00
51439;BME280;38816;51.142;-0.974;2024-02-23T03:26:52;96958.78;;;3.14;100.00
51439;BME280;38816;51.142;-0.974;2024-02-23T03:29:18;96970.53;;;3.25;100.00
51439;BME280;38816;51.142;-0.974;2024-02-23T03:31:43;96973.84;;;3.35;100.00
51439;BME280;38816;51.142;-0.974;2024-02-23T03:34:09;96971.28;;;3.37;100.00
51439;BME280;38816;51.142;-0.974;2024-02-23T03:36:36;96978.88;;;3.41;100.00
51439;BME280;38816;51.142;-0.974;2024-02-23T03:39:02;96974.69;;;3.36;100.00
51439;BME280;38816;51.142;-0.974;2024-02-23T03:41:28;96968.81;;;3.30;100.00
51439;BME280;38816;51.142;-0.974;2024-02-23T03:43:53;96967.16;;;3.26;100.00
51439;BME280;38816;51.142;-0.974;2024-02-23T03:46:19;96974.00;;;3.15;100.00
51439;BME280;38816;51.142;-0.974;2024-02-23T03:48:45;96969.84;;;3.07;100.00
51439;BME280;38816;51.142;-0.974;2024-02-23T03:51:10;96974.06;;;3.04;100.00
51439;BME280;38816;51.142;-0.974;2024-02-23T03:53:36;96974.94;;;2.99;100.00
51439;BME280;38816;51.142;-0.974;2024-02-23T03:56:02;96973.25;;;2.96;100.00
51439;BME280;38816;51.142;-0.974;2024-02-23T03:58:28;96970.78;;;2.89;100.00
51439;BME280;38816;51.142;-0.974;2024-02-23T04:00:54;96969.09;;;2.83;100.00
51439;BME280;38816;51.142;-0.974;2024-02-23T04:03:19;96968.25;;;2.89;100.00
51439;BME280;38816;51.142;-0.974;2024-02-23T04:05:45;96969.94;;;2.90;100.00
51439;BME280;38816;51.142;-0.974;2024-02-23T04:08:10;96971.66;;;2.85;100.00
51439;BME280;38816;51.142;-0.974;2024-02-23T04:10:36;96964.91;;;2.79;100.00
51439;BME280;38816;51.142;-0.974;2024-02-23T04:13:01;96967.44;;;2.81;100.00
51439;BME280;38816;51.142;-0.974;2024-02-23T04:15:27;96975.91;;;2.79;100.00
51439;BME280;38816;51.142;-0.974;2024-02-23T04:17:52;96976.75;;;2.80;100.00
51439;BME280;38816;51.142;-0.974;2024-02-23T04:20:18;96984.38;;;2.75;100.00
51439;BME280;38816;51.142;-0.974;2024-02-23T04:22:44;96979.28;;;2.78;100.00
51439;BME280;38816;51.142;-0.974;2024-02-23T04:25:10;96988.59;;;2.76;100.00
51439;BME280;38816;51.142;-0.974;2024-02-23T04:27:35;96985.19;;;2.82;100.00
51439;BME280;38816;51.142;-0.974;2024-02-23T04:30:01;96989.44;;;2.78;100.00
51439;BME280;38816;51.142;-0.974;2024-02-23T04:32:27;96997.06;;;2.80;100.00
51439;BME280;38816;51.142;-0.974;2024-02-23T04:34:53;96987.69;;;2.87;100.00
51439;BME280;38816;51.142;-0.974;2024-02-23T04:37:18;96997.88;;;2.81;100.00
51439;BME280;38816;51.142;-0.974;2024-02-23T04:39:44;97002.91;;;2.84;100.00
51439;BME280;38816;51.142;-0.974;2024-02-23T04:42:10;97003.00;;;2.71;100.00
51439;BME280;38816;51.142;-0.974;2024-02-23T04:44:35;97003.00;;;2.73;100.00
51439;BME280;38816;51.142;-0.974;2024-02-23T04:47:01;97006.41;;;2.70;100.00
51439;BME280;38816;51.142;-0.974;2024-02-23T04:49:28;97006.34;;;2.76;100.00
51439;BME280;38816;51.142;-0.974;2024-02-23T04:51:54;97016.47;;;2.83;100.00
51439;BME280;38816;51.142;-0.974;2024-02-23T04:54:20;97011.44;;;2.73;100.00
51439;BME280;38816;51.142;-0.974;2024-02-23T04:56:46;97022.41;;;2.74;100.00
51439;BME280;38816;51.142;-0.974;2024-02-23T04:59:13;97017.38;;;2.68;100.00
51439;BME280;38816;51.142;-0.974;2024-02-23T05:01:39;97015.69;;;2.65;100.00
51439;BME280;38816;51.142;-0.974;2024-02-23T05:04:04;97029.25;;;2.60;100.00
51439;BME280;38816;51.142;-0.974;2024-02-23T05:06:30;97030.97;;;2.54;100.00
51439;BME280;38816;51.142;-0.974;2024-02-23T05:08:56;97033.50;;;2.58;100.00
51439;BME280;38816;51.142;-0.974;2024-02-23T05:11:21;97035.19;;;2.59;100.00
51439;BME280;38816;51.142;-0.974;2024-02-23T05:13:47;97032.66;;;2.52;100.00
51439;BME280;38816;51.142;-0.974;2024-02-23T05:16:16;97042.81;;;2.46;100.00
51439;BME280;38816;51.142;-0.974;2024-02-23T05:18:41;97040.28;;;2.42;100.00
51439;BME280;38816;51.142;-0.974;2024-02-23T05:21:07;97036.09;;;2.36;100.00
51439;BME280;38816;51.142;-0.974;2024-02-23T05:23:33;97052.13;;;2.34;100.00
51439;BME280;38816;51.142;-0.974;2024-02-23T05:25:58;97052.97;;;2.34;100.00
51439;BME280;38816;51.142;-0.974;2024-02-23T05:28:24;97061.44;;;2.39;100.00
51439;BME280;38816;51.142;-0.974;2024-02-23T05:30:50;97053.00;;;2.33;100.00
51439;BME280;38816;51.142;-0.974;2024-02-23T05:33:16;97058.06;;;2.33;100.00
51439;BME280;38816;51.142;-0.974;2024-02-23T05:35:41;97057.25;;;2.26;100.00
51439;BME280;38816;51.142;-0.974;2024-02-23T05:38:07;97053.84;;;2.28;100.00
51439;BME280;38816;51.142;-0.974;2024-02-23T05:40:32;97047.94;;;2.31;100.00
51439;BME280;38816;51.142;-0.974;2024-02-23T05:42:58;97057.25;;;2.31;100.00
51439;BME280;38816;51.142;-0.974;2024-02-23T05:45:24;97052.16;;;2.27;100.00
51439;BME280;38816;51.142;-0.974;2024-02-23T05:47:49;97055.56;;;2.23;100.00
51439;BME280;38816;51.142;-0.974;2024-02-23T05:50:15;97045.41;;;2.26;100.00
51439;BME280;38816;51.142;-0.974;2024-02-23T05:52:41;97058.94;;;2.25;100.00
51439;BME280;38816;51.142;-0.974;2024-02-23T05:55:07;97049.63;;;2.27;100.00
51439;BME280;38816;51.142;-0.974;2024-02-23T05:57:33;97048.78;;;2.32;100.00
51439;BME280;38816;51.142;-0.974;2024-02-23T05:59:58;97053.84;;;2.35;100.00
51439;BME280;38816;51.142;-0.974;2024-02-23T06:02:24;97052.16;;;2.31;100.00
51439;BME280;38816;51.142;-0.974;2024-02-23T06:04:49;97049.63;;;2.31;100.00
51439;BME280;38816;51.142;-0.974;2024-02-23T06:07:15;97051.28;;;2.38;100.00
51439;BME280;38816;51.142;-0.974;2024-02-23T06:09:41;97051.31;;;2.35;100.00
51439;BME280;38816;51.142;-0.974;2024-02-23T06:12:07;97055.53;;;2.33;100.00
51439;BME280;38816;51.142;-0.974;2024-02-23T06:14:33;97063.16;;;2.31;100.00
51439;BME280;38816;51.142;-0.974;2024-02-23T06:16:59;97061.44;;;2.33;100.00
51439;BME280;38816;51.142;-0.974;2024-02-23T06:19:24;97065.66;;;2.36;100.00
51439;BME280;38816;51.142;-0.974;2024-02-23T06:21:50;97068.22;;;2.39;100.00
51439;BME280;38816;51.142;-0.974;2024-02-23T06:24:16;97070.72;;;2.45;100.00
51439;BME280;38816;51.142;-0.974;2024-02-23T06:26:42;97067.31;;;2.43;100.00
51439;BME280;38816;51.142;-0.974;2024-02-23T06:29:07;97066.50;;;2.39;100.00
51439;BME280;38816;51.142;-0.974;2024-02-23T06:31:38;97074.97;;;2.35;100.00
51439;BME280;38816;51.142;-0.974;2024-02-23T06:34:07;97081.72;;;2.36;100.00
51439;BME280;38816;51.142;-0.974;2024-02-23T06:36:33;97086.78;;;2.36;100.00
51439;BME280;38816;51.142;-0.974;2024-02-23T06:38:59;97085.94;;;2.36;100.00
51439;BME280;38816;51.142;-0.974;2024-02-23T06:41:24;97096.91;;;2.38;100.00
51439;BME280;38816;51.142;-0.974;2024-02-23T06:43:50;97099.44;;;2.38;100.00
51439;BME280;38816;51.142;-0.974;2024-02-23T06:46:18;97097.78;;;2.32;100.00
51439;BME280;38816;51.142;-0.974;2024-02-23T06:48:45;97096.94;;;2.30;100.00
51439;BME280;38816;51.142;-0.974;2024-02-23T06:51:11;97107.91;;;2.29;100.00
51439;BME280;38816;51.142;-0.974;2024-02-23T06:53:36;97107.09;;;2.21;100.00
51439;BME280;38816;51.142;-0.974;2024-02-23T06:56:03;97096.97;;;2.13;100.00
51439;BME280;38816;51.142;-0.974;2024-02-23T06:58:28;97102.88;;;2.09;100.00
51439;BME280;38816;51.142;-0.974;2024-02-23T07:00:54;97108.78;;;1.99;100.00
51439;BME280;38816;51.142;-0.974;2024-02-23T07:03:20;97105.41;;;1.91;100.00
51439;BME280;38816;51.142;-0.974;2024-02-23T07:05:45;97105.41;;;1.82;100.00
51439;BME280;38816;51.142;-0.974;2024-02-23T07:08:12;97118.06;;;1.82;100.00
51439;BME280;38816;51.142;-0.974;2024-02-23T07:10:38;97118.06;;;1.75;100.00
51439;BME280;38816;51.142;-0.974;2024-02-23T07:13:03;97118.91;;;1.74;100.00
51439;BME280;38816;51.142;-0.974;2024-02-23T07:15:29;97112.16;;;1.73;100.00
51439;BME280;38816;51.142;-0.974;2024-02-23T07:17:55;97108.78;;;1.68;100.00
51439;BME280;38816;51.142;-0.974;2024-02-23T07:20:22;97109.59;;;1.61;100.00
51439;BME280;38816;51.142;-0.974;2024-02-23T07:22:47;97110.44;;;1.52;100.00
51439;BME280;38816;51.142;-0.974;2024-02-23T07:25:20;97124.78;;;1.46;100.00
51439;BME280;38816;51.142;-0.974;2024-02-23T07:27:48;97117.19;;;1.41;100.00
51439;BME280;38816;51.142;-0.974;2024-02-23T07:30:15;97118.84;;;1.38;100.00
51439;BME280;38816;51.142;-0.974;2024-02-23T07:32:42;97120.53;;;1.33;100.00
51439;BME280;38816;51.142;-0.974;2024-02-23T07:35:07;97126.41;;;1.29;100.00
51439;BME280;38816;51.142;-0.974;2024-02-23T07:37:33;97130.63;;;1.34;100.00
51439;BME280;38816;51.142;-0.974;2024-02-23T07:39:59;97136.59;;;1.41;100.00
51439;BME280;38816;51.142;-0.974;2024-02-23T07:42:24;97139.09;;;1.48;100.00
51439;BME280;38816;51.142;-0.974;2024-02-23T07:44:50;97142.50;;;1.46;100.00
51439;BME280;38816;51.142;-0.974;2024-02-23T07:47:15;97141.66;;;1.50;100.00
51439;BME280;38816;51.142;-0.974;2024-02-23T07:49:41;97144.19;;;1.56;100.00
51439;BME280;38816;51.142;-0.974;2024-02-23T07:52:06;97138.31;;;1.59;100.00
51439;BME280;38816;51.142;-0.974;2024-02-23T07:54:32;97145.06;;;1.67;100.00
51439;BME280;38816;51.142;-0.974;2024-02-23T07:56:58;97149.31;;;1.71;100.00
51439;BME280;38816;51.142;-0.974;2024-02-23T07:59:24;97150.97;;;1.74;100.00
51439;BME280;38816;51.142;-0.974;2024-02-23T08:01:49;97129.06;;;1.71;100.00
51439;BME280;38816;51.142;-0.974;2024-02-23T08:04:15;97139.19;;;1.85;100.00
51439;BME280;38816;51.142;-0.974;2024-02-23T08:06:41;97145.09;;;1.95;100.00
51439;BME280;38816;51.142;-0.974;2024-02-23T08:09:08;97152.69;;;2.09;100.00
51439;BME280;38816;51.142;-0.974;2024-02-23T08:11:34;97146.78;;;2.17;100.00
51439;BME280;38816;51.142;-0.974;2024-02-23T08:14:02;97145.09;;;2.19;100.00
51439;BME280;38816;51.142;-0.974;2024-02-23T08:16:29;97153.56;;;2.21;100.00
51439;BME280;38816;51.142;-0.974;2024-02-23T08:18:54;97156.91;;;2.23;100.00
51439;BME280;38816;51.142;-0.974;2024-02-23T08:21:20;97158.59;;;2.24;100.00
51439;BME280;38816;51.142;-0.974;2024-02-23T08:23:45;97159.47;;;2.31;100.00
51439;BME280;38816;51.142;-0.974;2024-02-23T08:26:11;97160.28;;;2.44;100.00
51439;BME280;38816;51.142;-0.974;2024-02-23T08:28:36;97163.66;;;2.55;100.00
51439;BME280;38816;51.142;-0.974;2024-02-23T08:31:02;97167.84;;;2.64;100.00
51439;BME280;38816;51.142;-0.974;2024-02-23T08:33:27;97168.69;;;2.75;100.00
51439;BME280;38816;51.142;-0.974;2024-02-23T08:35:54;97176.28;;;2.83;100.00
51439;BME280;38816;51.142;-0.974;2024-02-23T08:38:20;97177.13;;;2.89;100.00
51439;BME280;38816;51.142;-0.974;2024-02-23T08:40:45;97181.34;;;2.90;100.00
51439;BME280;38816;51.142;-0.974;2024-02-23T08:43:11;97183.00;;;2.94;100.00
51439;BME280;38816;51.142;-0.974;2024-02-23T08:45:37;97178.81;;;2.93;100.00
51439;BME280;38816;51.142;-0.974;2024-02-23T08:48:02;97182.19;;;2.85;100.00
51439;BME280;38816;51.142;-0.974;2024-02-23T08:50:32;97192.34;;;2.85;100.00
51439;BME280;38816;51.142;-0.974;2024-02-23T08:52:57;97197.41;;;2.82;100.00
51439;BME280;38816;51.142;-0.974;2024-02-23T08:55:23;97205.88;;;2.82;100.00
51439;BME280;38816;51.142;-0.974;2024-02-23T08:57:49;97205.84;;;2.84;100.00
51439;BME280;38816;51.142;-0.974;2024-02-23T09:00:15;97202.47;;;2.91;100.00
51439;BME280;38816;51.142;-0.974;2024-02-23T09:02:40;97210.09;;;2.91;100.00
51439;BME280;38816;51.142;-0.974;2024-02-23T09:05:08;97215.13;;;2.97;100.00
51439;BME280;38816;51.142;-0.974;2024-02-23T09:07:33;97221.06;;;3.02;100.00
51439;BME280;38816;51.142;-0.974;2024-02-23T09:09:59;97207.50;;;3.09;100.00
51439;BME280;38816;51.142;-0.974;2024-02-23T09:12:25;97214.25;;;3.16;100.00
51439;BME280;38816;51.142;-0.974;2024-02-23T09:14:51;97207.47;;;3.21;100.00
51439;BME280;38816;51.142;-0.974;2024-02-23T09:17:16;97223.50;;;3.31;100.00
51439;BME280;38816;51.142;-0.974;2024-02-23T09:19:44;97229.38;;;3.48;100.00
51439;BME280;38816;51.142;-0.974;2024-02-23T09:22:09;97224.25;;;3.61;100.00
51439;BME280;38816;51.142;-0.974;2024-02-23T09:24:35;97211.47;;;3.73;100.00
51439;BME280;38816;51.142;-0.974;2024-02-23T09:27:00;97216.47;;;3.87;100.00
51439;BME280;38816;51.142;-0.974;2024-02-23T09:29:27;97218.94;;;3.96;100.00
51439;BME280;38816;51.142;-0.974;2024-02-23T09:31:52;97224.81;;;4.07;100.00
51439;BME280;38816;51.142;-0.974;2024-02-23T09:34:18;97207.81;;;4.15;100.00
51439;BME280;38816;51.142;-0.974;2024-02-23T09:36:43;97205.25;;;4.18;100.00
51439;BME280;38816;51.142;-0.974;2024-02-23T09:39:09;97215.38;;;4.23;100.00
51439;BME280;38816;51.142;-0.974;2024-02-23T09:41:34;97200.94;;;4.26;100.00
51439;BME280;38816;51.142;-0.974;2024-02-23T09:44:01;97211.91;;;4.35;100.00
51439;BME280;38816;51.142;-0.974;2024-02-23T09:46:27;97209.28;;;4.45;100.00
51439;BME280;38816;51.142;-0.974;2024-02-23T09:48:54;97212.59;;;4.53;100.00
51439;BME280;38816;51.142;-0.974;2024-02-23T09:51:21;97204.84;;;4.67;100.00
51439;BME280;38816;51.142;-0.974;2024-02-23T09:53:49;97210.66;;;4.81;100.00
51439;BME280;38816;51.142;-0.974;2024-02-23T09:56:15;97214.72;;;5.01;100.00
51439;BME280;38816;51.142;-0.974;2024-02-23T09:58:43;97218.78;;;5.19;100.00
51439;BME280;38816;51.142;-0.974;2024-02-23T10:01:11;97222.00;;;5.33;100.00
51439;BME280;38816;51.142;-0.974;2024-02-23T10:03:37;97225.31;;;5.41;100.00
51439;BME280;38816;51.142;-0.974;2024-02-23T10:06:04;97227.03;;;5.39;100.00
51439;BME280;38816;51.142;-0.974;2024-02-23T10:08:30;97218.56;;;5.37;100.00
51439;BME280;38816;51.142;-0.974;2024-02-23T10:10:56;97231.28;;;5.36;100.00
51439;BME280;38816;51.142;-0.974;2024-02-23T10:13:23;97220.28;;;5.35;100.00
51439;BME280;38816;51.142;-0.974;2024-02-23T10:15:52;97212.56;;;5.43;100.00
51439;BME280;38816;51.142;-0.974;2024-02-23T10:18:19;97220.94;;;5.51;100.00
51439;BME280;38816;51.142;-0.974;2024-02-23T10:20:46;97218.28;;;5.60;100.00
51439;BME280;38816;51.142;-0.974;2024-02-23T10:23:11;97209.72;;;5.66;100.00
51439;BME280;38816;51.142;-0.974;2024-02-23T10:25:37;97218.06;;;5.77;100.00
51439;BME280;38816;51.142;-0.974;2024-02-23T10:28:06;97218.91;;;5.77;100.00
51439;BME280;38816;51.142;-0.974;2024-02-23T10:30:32;97234.97;;;5.86;100.00
51439;BME280;38816;51.142;-0.974;2024-02-23T10:32:58;97229.00;;;5.87;100.00
51439;BME280;38816;51.142;-0.974;2024-02-23T10:35:25;97224.63;;;5.96;100.00
51439;BME280;38816;51.142;-0.974;2024-02-23T10:37:51;97225.22;;;6.15;100.00
51439;BME280;38816;51.142;-0.974;2024-02-23T10:40:19;97232.75;;;6.21;100.00
51439;BME280;38816;51.142;-0.974;2024-02-23T10:42:47;97222.66;;;6.15;100.00
51439;BME280;38816;51.142;-0.974;2024-02-23T10:45:20;97227.59;;;6.27;100.00
51439;BME280;38816;51.142;-0.974;2024-02-23T10:47:48;97230.03;;;6.35;100.00
51439;BME280;38816;51.142;-0.974;2024-02-23T10:50:14;97235.94;;;6.37;100.00
51439;BME280;38816;51.142;-0.974;2024-02-23T10:52:43;97236.56;;;6.53;100.00
51439;BME280;38816;51.142;-0.974;2024-02-23T10:55:09;97240.59;;;6.65;100.00
51439;BME280;38816;51.142;-0.974;2024-02-23T10:57:35;97235.94;;;6.90;100.00
51439;BME280;38816;51.142;-0.974;2024-02-23T11:00:02;97248.34;;;7.09;100.00
51439;BME280;38816;51.142;-0.974;2024-02-23T11:02:32;97255.25;;;7.04;100.00
51439;BME280;38816;51.142;-0.974;2024-02-23T11:05:03;97244.25;;;7.01;100.00
51439;BME280;38816;51.142;-0.974;2024-02-23T11:07:30;97249.31;;;7.04;100.00
51439;BME280;38816;51.142;-0.974;2024-02-23T11:09:59;97251.16;;;6.96;100.00
51439;BME280;38816;51.142;-0.974;2024-02-23T11:12:25;97267.31;;;6.96;100.00
51439;BME280;38816;51.142;-0.974;2024-02-23T11:14:51;97259.72;;;6.92;100.00
51439;BME280;38816;51.142;-0.974;2024-02-23T11:17:21;97258.78;;;6.97;100.00
51439;BME280;38816;51.142;-0.974;2024-02-23T11:19:50;97259.53;;;7.02;100.00
51439;BME280;38816;51.142;-0.974;2024-02-23T11:24:51;97262.25;;;6.93;100.00
51439;BME280;38816;51.142;-0.974;2024-02-23T11:27:16;97259.47;;;7.07;100.00
51439;BME280;38816;51.142;-0.974;2024-02-23T11:29:45;97260.00;;;7.24;100.00
51439;BME280;38816;51.142;-0.974;2024-02-23T11:32:16;97258.00;;;7.40;100.00
51439;BME280;38816;51.142;-0.974;2024-02-23T11:34:54;97254.41;;;7.50;100.00
51439;BME280;38816;51.142;-0.974;2024-02-23T11:37:21;97250.75;;;7.64;100.00
51439;BME280;38816;51.142;-0.974;2024-02-23T11:39:46;97246.22;;;7.76;100.00
51439;BME280;38816;51.142;-0.974;2024-02-23T11:42:12;97240.22;;;7.77;100.00
51439;BME280;38816;51.142;-0.974;2024-02-23T11:44:38;97249.16;;;7.58;100.00
51439;BME280;38816;51.142;-0.974;2024-02-23T11:47:03;97243.53;;;7.41;100.00
51439;BME280;38816;51.142;-0.974;2024-02-23T11:49:29;97245.19;;;7.42;100.00
51439;BME280;38816;51.142;-0.974;2024-02-23T11:51:55;97242.63;;;7.42;100.00
51439;BME280;38816;51.142;-0.974;2024-02-23T11:54:22;97246.94;;;7.40;100.00
51439;BME280;38816;51.142;-0.974;2024-02-23T11:56:48;97252.06;;;7.40;100.00
51439;BME280;38816;51.142;-0.974;2024-02-23T11:59:15;97243.53;;;7.41;100.00
51439;BME280;38816;51.142;-0.974;2024-02-23T12:01:41;97243.47;;;7.44;100.00
51439;BME280;38816;51.142;-0.974;2024-02-23T12:04:07;97241.59;;;7.52;100.00
51439;BME280;38816;51.142;-0.974;2024-02-23T12:06:33;97243.16;;;7.59;100.00
51439;BME280;38816;51.142;-0.974;2024-02-23T12:09:00;97237.16;;;7.60;100.00
51439;BME280;38816;51.142;-0.974;2024-02-23T12:11:26;97242.09;;;7.69;100.00
51439;BME280;38816;51.142;-0.974;2024-02-23T12:13:53;97238.75;;;7.67;100.00
51439;BME280;38816;51.142;-0.974;2024-02-23T12:16:20;97245.50;;;7.70;100.00
51439;BME280;38816;51.142;-0.974;2024-02-23T12:18:52;97241.16;;;7.73;100.00
51439;BME280;38816;51.142;-0.974;2024-02-23T12:21:19;97233.34;;;7.81;100.00
51439;BME280;38816;51.142;-0.974;2024-02-23T12:23:45;97227.03;;;7.97;100.00
51439;BME280;38816;51.142;-0.974;2024-02-23T12:26:13;97235.75;;;7.89;100.00
51439;BME280;38816;51.142;-0.974;2024-02-23T12:28:40;97233.28;;;7.82;100.00
51439;BME280;38816;51.142;-0.974;2024-02-23T12:31:06;97226.31;;;7.91;100.00
51439;BME280;38816;51.142;-0.974;2024-02-23T12:33:33;97230.22;;;8.07;100.00
51439;BME280;38816;51.142;-0.974;2024-02-23T12:36:04;97207.50;;;7.93;100.00
51439;BME280;38816;51.142;-0.974;2024-02-23T12:38:30;97220.91;;;7.64;100.00
51439;BME280;38816;51.142;-0.974;2024-02-23T12:40:55;97210.94;;;7.50;100.00
51439;BME280;38816;51.142;-0.974;2024-02-23T12:43:21;97218.75;;;7.44;100.00
51439;BME280;38816;51.142;-0.974;2024-02-23T12:45:52;97205.97;;;7.43;100.00